Time;durP1;ratioP1;P1;durP2;ratioP2;P2;SDS_P1;SDS_P2;PMS_P1;PMS_P2;Temp;Humidity;BMP_temperature;BMP_pressure;BME280_temperature;BME280_humidity;BME280_pressure;Samples;Min_cycle;Max_cycle;Signal;HPM_P1;HPM_P2
2022/11/09 00:01:15;;;;;;;1.17;0.80;;;;;;;17.65;51.72;100474.28;5061975;27;97387;-83
2022/11/09 00:03:41;;;;;;;0.83;0.83;;;;;;;17.67;51.77;100480.06;5066029;27;97138;-81
2022/11/09 00:06:06;;;;;;;1.77;0.80;;;;;;;17.67;51.60;100477.28;5047856;27;96737;-83
2022/11/09 00:08:32;;;;;;;1.13;1.00;;;;;;;17.66;51.82;100475.78;5040421;27;103102;-82
2022/11/09 00:11:08;;;;;;;1.10;0.80;;;;;;;17.66;51.54;100479.31;5062469;27;96975;-81
2022/11/09 00:13:35;;;;;;;0.93;0.83;;;;;;;17.65;51.73;100477.81;5034019;27;97191;-82
2022/11/09 00:16:01;;;;;;;1.67;0.90;;;;;;;17.64;51.84;100472.81;5035800;27;97310;-83
2022/11/09 00:18:29;;;;;;;2.00;1.13;;;;;;;17.65;51.77;100469.47;5057184;27;97707;-82
2022/11/09 00:20:55;;;;;;;2.70;0.90;;;;;;;17.63;51.79;100458.13;5037909;27;97197;-82
2022/11/09 00:23:21;;;;;;;0.83;0.83;;;;;;;17.64;51.84;100468.00;5045750;27;97115;-82
2022/11/09 00:25:47;;;;;;;2.20;1.37;;;;;;;17.66;51.70;100459.84;5044787;27;97153;-82
2022/11/09 00:28:13;;;;;;;2.87;0.90;;;;;;;17.69;51.67;100467.06;5048509;27;98816;-82
2022/11/09 00:30:39;;;;;;;1.47;0.80;;;;;;;17.69;51.82;100458.00;5061904;27;97381;-81
2022/11/09 00:33:05;;;;;;;3.57;0.93;;;;;;;17.69;51.84;100458.72;5045631;27;96937;-82
2022/11/09 00:35:30;;;;;;;1.47;0.83;;;;;;;17.67;51.75;100449.47;5047272;27;96911;-82
2022/11/09 00:37:56;;;;;;;1.03;0.97;;;;;;;17.70;51.87;100453.91;5050813;27;98212;-82
2022/11/09 00:40:21;;;;;;;2.20;1.03;;;;;;;17.71;51.82;100441.50;5067405;27;97121;-83
2022/11/09 00:42:47;;;;;;;1.17;0.83;;;;;;;17.71;51.84;100441.50;5046614;27;97175;-82
2022/11/09 00:45:13;;;;;;;0.90;0.80;;;;;;;17.73;51.85;100445.25;5047167;27;96616;-84
2022/11/09 00:47:38;;;;;;;1.00;1.00;;;;;;;17.72;51.81;100457.66;5048991;27;100972;-83
2022/11/09 00:50:04;;;;;;;1.20;1.07;;;;;;;17.72;51.79;100446.50;5044225;27;97374;-82
2022/11/09 00:52:30;;;;;;;1.43;0.90;;;;;;;17.74;51.87;100443.19;5038982;27;97195;-82
2022/11/09 00:54:55;;;;;;;1.57;0.90;;;;;;;17.73;51.95;100436.88;5034886;27;97272;-83
2022/11/09 00:57:21;;;;;;;1.20;1.00;;;;;;;17.73;51.83;100425.75;5041778;27;99521;-82
2022/11/09 00:59:46;;;;;;;0.83;0.83;;;;;;;17.73;51.99;100442.47;5057012;27;96625;-82
2022/11/09 01:02:12;;;;;;;0.80;0.70;;;;;;;17.74;51.89;100438.38;5028300;27;97008;-81
2022/11/09 01:04:37;;;;;;;1.43;1.00;;;;;;;17.73;51.86;100442.47;5049361;27;97312;-81
2022/11/09 01:07:05;;;;;;;1.37;1.27;;;;;;;17.74;51.97;100432.81;5066620;27;97428;-83
2022/11/09 01:09:30;;;;;;;2.30;1.10;;;;;;;17.74;51.91;100434.84;5042575;27;99737;-81
2022/11/09 01:11:56;;;;;;;4.10;0.97;;;;;;;17.73;51.91;100448.03;5040889;27;97264;-83
2022/11/09 01:14:22;;;;;;;0.97;0.97;;;;;;;17.73;51.88;100442.47;5047138;27;97182;-83
2022/11/09 01:16:47;;;;;;;1.00;0.90;;;;;;;17.72;51.94;100442.97;5039648;27;99900;-82
2022/11/09 01:19:13;;;;;;;1.67;1.20;;;;;;;17.73;52.05;100445.25;5064645;27;98778;-81
2022/11/09 01:21:38;;;;;;;1.07;1.07;;;;;;;17.74;51.97;100443.19;5045634;27;97348;-82
2022/11/09 01:24:04;;;;;;;1.40;0.80;;;;;;;17.72;51.94;100451.31;5047560;27;97801;-82
2022/11/09 01:26:30;;;;;;;1.20;1.10;;;;;;;17.71;52.01;100441.50;5059487;27;98169;-82
2022/11/09 01:28:56;;;;;;;1.00;0.80;;;;;;;17.71;52.14;100433.16;5062635;27;97186;-83
2022/11/09 01:31:22;;;;;;;1.57;1.10;;;;;;;17.69;51.93;100433.69;5049914;27;97180;-82
2022/11/09 01:33:47;;;;;;;1.40;0.93;;;;;;;17.70;52.04;100426.84;5049418;27;96956;-83
2022/11/09 01:36:17;;;;;;;4.10;1.20;;;;;;;17.71;52.04;100433.16;5042434;27;98940;-81
2022/11/09 01:38:43;;;;;;;1.00;0.90;;;;;;;17.70;51.86;100435.19;5068158;27;97654;-82
2022/11/09 01:41:13;;;;;;;1.80;1.00;;;;;;;17.72;52.04;100435.38;5042608;27;97025;-82
2022/11/09 01:43:39;;;;;;;1.10;1.00;;;;;;;17.72;51.97;100435.38;5044303;27;97468;-81
2022/11/09 01:46:10;;;;;;;0.90;0.73;;;;;;;17.74;52.03;100437.63;5041534;27;96841;-83
2022/11/09 01:49:11;;;;;;;1.10;0.90;;;;;;;17.69;51.83;100442.03;5048731;27;99795;-81
2022/11/09 01:51:41;;;;;;;2.90;0.70;;;;;;;17.71;52.07;100435.94;5037771;27;97193;-81
2022/11/09 01:54:23;;;;;;;0.90;0.70;;;;;;;17.72;51.99;100431.84;5048529;27;97235;-83
2022/11/09 01:56:52;;;;;;;1.13;0.90;;;;;;;17.72;52.12;100424.25;5063135;27;103410;-82
2022/11/09 01:59:24;;;;;;;1.10;0.97;;;;;;;17.74;52.15;100420.91;5070011;27;97084;-83
2022/11/09 02:01:51;;;;;;;1.23;0.70;;;;;;;17.75;51.89;100425.22;5062335;27;97289;-81
2022/11/09 02:04:22;;;;;;;1.37;0.90;;;;;;;17.76;52.05;100421.13;5042863;27;96992;-82
2022/11/09 02:06:49;;;;;;;1.00;0.83;;;;;;;17.78;52.04;100427.63;5059309;27;101921;-82
2022/11/09 02:09:26;;;;;;;0.90;0.90;;;;;;;17.81;52.05;100423.00;5062957;27;96929;-82
2022/11/09 02:11:52;;;;;;;3.37;0.83;;;;;;;17.79;52.04;100429.13;5049835;27;96773;-82
2022/11/09 02:14:21;;;;;;;1.27;1.10;;;;;;;17.79;52.04;100418.00;5037010;27;97230;-82
2022/11/09 02:16:47;;;;;;;2.63;0.87;;;;;;;17.80;52.02;100424.31;5059186;27;98118;-82
2022/11/09 02:19:13;;;;;;;1.93;0.93;;;;;;;17.81;52.00;100420.22;5073207;27;97336;-81
2022/11/09 02:21:38;;;;;;;0.97;0.90;;;;;;;17.80;52.09;100425.03;5055791;27;96762;-82
2022/11/09 02:24:04;;;;;;;1.37;0.73;;;;;;;17.83;51.85;100423.94;5042054;27;97503;-81
2022/11/09 02:26:42;;;;;;;1.20;1.10;;;;;;;17.83;51.84;100423.94;5039525;27;98884;-82
2022/11/09 02:29:10;;;;;;;1.10;0.97;;;;;;;17.81;51.93;100420.97;5048583;27;102016;-82
2022/11/09 02:31:41;;;;;;;1.20;1.20;;;;;;;17.82;51.90;100422.44;5051366;27;97224;-82
2022/11/09 02:34:10;;;;;;;1.20;1.10;;;;;;;17.83;51.97;100412.06;5047234;27;97252;-82
2022/11/09 02:36:36;;;;;;;0.70;0.67;;;;;;;17.84;51.98;100422.66;5038629;27;99505;-82
2022/11/09 02:39:02;;;;;;;2.13;1.13;;;;;;;17.84;51.92;100405.94;5036798;27;96899;-82
2022/11/09 02:41:30;;;;;;;1.00;0.83;;;;;;;17.86;51.96;100411.72;5051016;27;97524;-82
2022/11/09 02:43:56;;;;;;;0.87;0.87;;;;;;;17.86;52.15;100411.72;5049891;27;97033;-82
2022/11/09 02:46:31;;;;;;;0.90;0.80;;;;;;;17.87;51.86;100404.09;5047664;27;99086;-82
2022/11/09 02:48:57;;;;;;;1.03;0.70;;;;;;;17.85;52.07;100413.00;5042166;27;102578;-81
2022/11/09 02:51:22;;;;;;;2.43;1.00;;;;;;;17.85;51.83;100415.78;5062201;27;97061;-82
2022/11/09 02:53:48;;;;;;;0.80;0.80;;;;;;;17.84;51.91;100403.16;5061323;27;97114;-82
2022/11/09 02:56:13;;;;;;;1.00;0.67;;;;;;;17.83;51.96;100398.91;5031706;27;98239;-82
2022/11/09 02:58:38;;;;;;;1.53;0.70;;;;;;;17.84;51.96;100431.00;5024946;27;97365;-81
2022/11/09 03:01:04;;;;;;;0.93;0.73;;;;;;;17.84;51.98;100408.72;5059569;27;97617;-82
2022/11/09 03:03:29;;;;;;;1.67;0.60;;;;;;;17.83;52.03;100398.91;5048541;27;97009;-82
2022/11/09 03:05:55;;;;;;;1.73;0.90;;;;;;;17.82;52.05;100410.59;5035702;27;97415;-82
2022/11/09 03:08:20;;;;;;;13.53;0.97;;;;;;;17.85;51.92;100406.69;5045394;27;98304;-81
2022/11/09 03:10:46;;;;;;;0.80;0.80;;;;;;;17.84;51.99;100408.72;5040134;27;97074;-82
2022/11/09 03:13:11;;;;;;;1.10;1.00;;;;;;;17.85;51.94;100404.66;5052501;27;97003;-82
2022/11/09 03:15:37;;;;;;;1.10;1.00;;;;;;;17.83;52.01;100400.94;5028256;27;97272;-82
2022/11/09 03:18:03;;;;;;;0.93;0.80;;;;;;;17.81;51.94;100401.50;5038782;27;97092;-82
2022/11/09 03:20:28;;;;;;;3.90;0.97;;;;;;;17.83;51.82;100401.69;5052853;27;96752;-83
2022/11/09 03:22:58;;;;;;;0.70;0.70;;;;;;;17.81;52.02;100398.72;5037072;27;97462;-81
2022/11/09 03:25:25;;;;;;;5.00;1.00;;;;;;;17.78;51.99;100404.63;5042860;27;103788;-82
2022/11/09 03:27:59;;;;;;;0.90;0.80;;;;;;;17.78;51.87;100407.41;5052780;27;96791;-82
2022/11/09 03:30:25;;;;;;;0.80;0.70;;;;;;;17.77;52.00;100417.81;5038854;27;97227;-82
2022/11/09 03:32:50;;;;;;;1.10;1.00;;;;;;;17.78;52.01;100421.31;5060921;27;97411;-82
2022/11/09 03:35:15;;;;;;;1.20;0.70;;;;;;;17.76;52.06;100427.44;5056623;27;98444;-81
2022/11/09 03:37:41;;;;;;;1.17;1.07;;;;;;;17.76;51.93;100415.53;5071317;27;98458;-84
2022/11/09 03:40:07;;;;;;;0.83;0.83;;;;;;;17.75;51.98;100422.41;5042839;27;96997;-81
2022/11/09 03:42:32;;;;;;;0.73;0.73;;;;;;;17.75;52.07;100423.19;5059570;27;96797;-82
2022/11/09 03:44:57;;;;;;;1.00;0.53;;;;;;;17.75;52.10;100437.09;5034884;27;97103;-82
2022/11/09 03:47:23;;;;;;;0.90;0.70;;;;;;;17.74;52.05;100416.09;5029084;27;97530;-82
2022/11/09 03:49:48;;;;;;;2.40;1.13;;;;;;;17.74;52.09;100437.63;5032839;27;97202;-82
2022/11/09 03:52:14;;;;;;;1.00;0.80;;;;;;;17.73;52.07;100425.00;5030633;27;97266;-82
2022/11/09 03:54:39;;;;;;;0.73;0.60;;;;;;;17.71;52.22;100433.16;5053451;27;97166;-81
2022/11/09 03:57:05;;;;;;;0.63;0.60;;;;;;;17.66;52.16;100425.69;5045019;27;97638;-81
2022/11/09 03:59:30;;;;;;;2.00;1.07;;;;;;;17.64;52.31;100414.38;5041620;27;96827;-82
2022/11/09 04:01:55;;;;;;;1.20;1.10;;;;;;;17.63;52.30;100421.22;5058119;27;96797;-82
2022/11/09 04:04:21;;;;;;;0.83;0.80;;;;;;;17.62;52.23;100417.72;5038293;27;97022;-82
2022/11/09 04:06:46;;;;;;;1.20;1.00;;;;;;;17.62;52.30;100414.94;5054991;27;97033;-82
2022/11/09 04:09:12;;;;;;;0.80;0.80;;;;;;;17.61;52.28;100412.69;5031393;27;96697;-82
2022/11/09 04:11:37;;;;;;;0.83;0.80;;;;;;;17.60;52.33;100411.19;5055103;27;97273;-81
2022/11/09 04:14:03;;;;;;;3.20;1.20;;;;;;;17.58;52.41;100408.94;5063780;27;97764;-82
2022/11/09 04:16:28;;;;;;;1.93;0.97;;;;;;;17.49;52.50;100412.22;5045850;27;96981;-82
2022/11/09 04:18:54;;;;;;;1.00;1.00;;;;;;;17.53;52.48;100411.88;5046580;27;97282;-82
2022/11/09 04:21:19;;;;;;;1.10;1.00;;;;;;;17.49;52.55;100425.38;5066054;27;96915;-83
2022/11/09 04:23:47;;;;;;;9.63;0.90;;;;;;;17.48;52.60;100421.84;5060996;27;96731;-82
2022/11/09 04:26:12;;;;;;;1.20;1.00;;;;;;;17.46;52.68;100418.88;5057181;27;98353;-82
2022/11/09 04:28:38;;;;;;;2.03;0.90;;;;;;;17.44;52.70;100409.56;5043540;27;97248;-82
2022/11/09 04:31:03;;;;;;;1.20;1.03;;;;;;;17.45;52.49;100413.84;5043822;27;97142;-82
2022/11/09 04:33:29;;;;;;;6.83;1.00;;;;;;;17.44;52.79;100409.56;5058191;27;97368;-82
2022/11/09 04:35:54;;;;;;;1.00;0.70;;;;;;;17.40;52.66;100406.41;5048659;27;97254;-82
2022/11/09 04:38:20;;;;;;;0.97;0.70;;;;;;;17.38;52.80;100403.41;5040084;27;96913;-82
2022/11/09 04:40:45;;;;;;;1.30;1.20;;;;;;;17.37;52.94;100416.56;5048833;27;97130;-83
2022/11/09 04:43:12;;;;;;;0.73;0.63;;;;;;;17.36;52.98;100415.09;5062876;27;99413;-83
2022/11/09 04:45:38;;;;;;;2.10;1.10;;;;;;;17.34;52.97;100423.25;5073144;27;96735;-83
2022/11/09 04:48:06;;;;;;;0.80;0.80;;;;;;;17.33;52.82;100427.28;5046846;27;97266;-82
2022/11/09 04:50:32;;;;;;;1.03;0.93;;;;;;;17.32;52.84;100448.03;5056138;27;97245;-81
2022/11/09 04:53:12;;;;;;;0.90;0.90;;;;;;;17.32;52.98;100422.28;5046023;27;97444;-82
2022/11/09 04:55:39;;;;;;;1.10;0.97;;;;;;;17.28;53.05;100419.84;5039079;27;98377;-82
2022/11/09 04:58:05;;;;;;;0.90;0.90;;;;;;;17.27;52.94;100418.34;5031960;27;96719;-82
2022/11/09 05:00:31;;;;;;;1.70;0.90;;;;;;;17.22;52.96;100408.13;5039877;27;97205;-81
2022/11/09 05:03:01;;;;;;;0.97;0.67;;;;;;;17.22;53.16;100422.75;5041624;27;98162;-83
2022/11/09 05:05:28;;;;;;;0.80;0.80;;;;;;;17.20;53.06;100411.44;5042355;27;98482;-82
2022/11/09 05:07:53;;;;;;;1.80;0.93;;;;;;;17.14;53.20;100419.19;5044838;27;96923;-83
2022/11/09 05:10:20;;;;;;;0.80;0.80;;;;;;;17.15;53.09;100420.66;5042649;27;96770;-82
2022/11/09 05:12:47;;;;;;;0.97;0.80;;;;;;;17.14;53.16;100415.66;5056839;27;98464;-82
2022/11/09 05:15:12;;;;;;;0.80;0.63;;;;;;;17.10;53.19;100406.91;5042030;27;97171;-82
2022/11/09 05:17:38;;;;;;;1.07;0.67;;;;;;;17.06;53.16;100431.50;5040635;27;96950;-82
2022/11/09 05:20:13;;;;;;;0.70;0.70;;;;;;;17.05;53.37;100421.69;5017898;27;97240;-82
2022/11/09 05:25:25;;;;;;;0.60;0.60;;;;;;;17.02;53.32;100431.09;5054550;27;101237;-83
2022/11/09 05:27:51;;;;;;;1.93;1.00;;;;;;;17.04;53.46;100428.53;5048906;27;97206;-82
2022/11/09 05:30:17;;;;;;;2.03;0.70;;;;;;;17.01;53.30;100424.81;5045168;27;96782;-82
2022/11/09 05:32:43;;;;;;;1.10;1.00;;;;;;;16.96;53.39;100422.91;5062550;27;97342;-83
2022/11/09 05:35:08;;;;;;;1.63;1.10;;;;;;;16.96;53.36;100422.16;5081081;27;98325;-83
2022/11/09 05:37:34;;;;;;;0.97;0.83;;;;;;;16.96;53.41;100422.16;5057392;27;96801;-82
2022/11/09 05:40:00;;;;;;;0.80;0.70;;;;;;;16.93;53.54;100426.00;5041065;27;96972;-82
2022/11/09 05:42:25;;;;;;;0.80;0.63;;;;;;;16.93;53.56;100428.78;5038844;27;96741;-81
2022/11/09 05:44:51;;;;;;;0.73;0.73;;;;;;;16.95;53.55;100437.34;5020558;27;97762;-82
2022/11/09 05:47:18;;;;;;;0.90;0.60;;;;;;;16.97;53.57;100434.78;5042913;27;98431;-81
2022/11/09 05:49:43;;;;;;;0.80;0.80;;;;;;;16.99;53.60;100429.44;5046636;27;97109;-82
2022/11/09 05:52:09;;;;;;;0.60;0.60;;;;;;;16.97;53.60;100432.00;5031999;27;96768;-83
2022/11/09 05:54:34;;;;;;;0.73;0.73;;;;;;;16.93;53.57;100434.34;5033563;27;99848;-82
2022/11/09 05:57:00;;;;;;;0.90;0.90;;;;;;;16.96;53.65;100442.38;5064965;27;97100;-81
2022/11/09 05:59:26;;;;;;;1.00;0.90;;;;;;;16.98;53.69;100458.50;5057075;27;97119;-81
2022/11/09 06:01:51;;;;;;;0.97;0.90;;;;;;;16.96;53.62;100453.47;5052649;27;97734;-82
2022/11/09 06:04:17;;;;;;;1.63;0.70;;;;;;;16.97;53.50;100451.47;5051974;27;97033;-81
2022/11/09 06:06:42;;;;;;;0.70;0.70;;;;;;;16.92;53.54;100446.78;5053658;27;96703;-82
2022/11/09 06:09:08;;;;;;;0.70;0.57;;;;;;;16.96;53.72;100444.41;5041600;27;97530;-82
2022/11/09 06:11:33;;;;;;;0.80;0.60;;;;;;;16.94;53.75;100444.19;5037862;27;97687;-82
2022/11/09 06:13:59;;;;;;;1.60;0.93;;;;;;;16.93;53.65;100448.25;5031055;27;98023;-82
2022/11/09 06:16:24;;;;;;;1.33;0.70;;;;;;;16.92;53.77;100441.22;5032972;27;97409;-81
2022/11/09 06:18:50;;;;;;;0.70;0.60;;;;;;;16.91;53.81;100450.81;5034949;27;97135;-82
2022/11/09 06:21:15;;;;;;;0.80;0.80;;;;;;;16.88;53.88;100443.59;5033745;27;96859;-81
2022/11/09 06:23:41;;;;;;;1.43;0.77;;;;;;;16.87;53.94;100431.72;5032978;27;97165;-82
2022/11/09 06:26:09;;;;;;;0.83;0.80;;;;;;;16.88;53.95;100443.59;5062220;27;97250;-81
2022/11/09 06:28:35;;;;;;;0.60;0.60;;;;;;;16.89;54.12;100451.38;5061381;27;96850;-82
2022/11/09 06:31:02;;;;;;;1.63;0.90;;;;;;;16.87;54.03;100442.84;5038847;27;99898;-81
2022/11/09 06:33:33;;;;;;;1.93;0.70;;;;;;;16.86;54.33;100457.28;5035868;27;97744;-82
2022/11/09 06:35:59;;;;;;;0.80;0.60;;;;;;;16.85;54.10;100447.44;5041409;27;97030;-81
2022/11/09 06:38:28;;;;;;;1.97;0.70;;;;;;;16.84;54.20;100441.13;5034684;27;97489;-81
2022/11/09 06:40:55;;;;;;;0.70;0.63;;;;;;;16.89;54.12;100465.25;5035025;27;98891;-81
2022/11/09 06:43:20;;;;;;;0.73;0.73;;;;;;;16.88;54.16;100465.81;5065118;27;97208;-82
2022/11/09 06:45:46;;;;;;;0.80;0.67;;;;;;;16.87;54.28;100478.19;5040658;27;96796;-81
2022/11/09 06:48:12;;;;;;;0.80;0.77;;;;;;;16.89;54.29;100462.47;5060198;27;97001;-81
2022/11/09 06:50:37;;;;;;;0.70;0.57;;;;;;;16.89;54.30;100478.41;5043192;27;98873;-82
2022/11/09 06:53:05;;;;;;;1.83;0.70;;;;;;;16.91;54.39;100475.84;5037147;27;97194;-81
2022/11/09 06:55:32;;;;;;;0.67;0.67;;;;;;;16.93;54.31;100462.13;5039206;27;97545;-82
2022/11/09 06:57:58;;;;;;;0.90;0.70;;;;;;;16.95;54.37;100473.50;5036577;27;97042;-81
2022/11/09 07:00:25;;;;;;;2.40;0.80;;;;;;;16.95;54.35;100465.88;5076688;27;97357;-82
2022/11/09 07:02:51;;;;;;;1.30;1.00;;;;;;;16.96;54.43;100464.59;5063554;27;97155;-81
2022/11/09 07:05:17;;;;;;;0.60;0.60;;;;;;;16.98;54.34;100475.16;5047532;27;97202;-83
2022/11/09 07:07:42;;;;;;;0.63;0.60;;;;;;;16.96;54.36;100472.19;5058667;27;97207;-83
2022/11/09 07:10:08;;;;;;;0.90;0.60;;;;;;;16.98;54.53;100466.84;5058127;27;97992;-81
2022/11/09 07:12:34;;;;;;;0.70;0.60;;;;;;;16.99;54.52;100465.56;5046960;27;97392;-82
2022/11/09 07:15:00;;;;;;;2.53;0.77;;;;;;;17.01;54.51;100472.06;5040791;27;96907;-82
2022/11/09 07:17:29;;;;;;;0.63;0.63;;;;;;;17.02;54.54;100476.31;5047882;27;97089;-80
2022/11/09 07:19:54;;;;;;;0.80;0.70;;;;;;;17.05;54.42;100491.19;5061497;27;96893;-82
2022/11/09 07:22:20;;;;;;;0.67;0.60;;;;;;;17.03;54.51;100488.19;5040278;27;97371;-83
2022/11/09 07:24:45;;;;;;;5.13;1.07;;;;;;;17.06;54.52;100487.09;5045663;27;97129;-83
2022/11/09 07:27:10;;;;;;;0.93;0.70;;;;;;;17.05;54.58;100488.41;5061061;27;96982;-82
2022/11/09 07:29:36;;;;;;;0.60;0.60;;;;;;;17.05;54.64;100491.94;5053768;27;99126;-81
2022/11/09 07:32:01;;;;;;;3.07;0.70;;;;;;;17.07;54.59;100483.03;5051099;27;97784;-81
2022/11/09 07:34:27;;;;;;;0.60;0.60;;;;;;;17.06;54.82;100496.19;5040879;27;96782;-82
2022/11/09 07:36:53;;;;;;;1.00;1.00;;;;;;;17.05;54.70;100491.19;5049158;27;97113;-82
2022/11/09 07:39:18;;;;;;;1.23;0.67;;;;;;;17.07;54.84;100499.72;5049250;27;99762;-82
2022/11/09 07:41:47;;;;;;;1.10;0.90;;;;;;;17.09;54.89;100497.16;5063440;27;97353;-82
2022/11/09 07:44:17;;;;;;;0.83;0.83;;;;;;;17.10;54.81;100493.81;5049545;27;97039;-82
2022/11/09 07:46:46;;;;;;;0.93;0.93;;;;;;;17.10;54.83;100499.38;5046777;27;97346;-81
2022/11/09 07:49:12;;;;;;;1.53;0.90;;;;;;;17.12;54.94;100505.13;5046793;27;98426;-82
2022/11/09 07:51:38;;;;;;;0.90;0.80;;;;;;;17.13;54.93;100503.88;5064816;27;97378;-82
2022/11/09 07:54:04;;;;;;;1.13;0.77;;;;;;;17.12;55.01;100501.63;5048307;27;97311;-83
2022/11/09 07:56:29;;;;;;;0.83;0.80;;;;;;;17.19;54.99;100507.25;5041252;27;96736;-82
2022/11/09 07:58:55;;;;;;;0.90;0.90;;;;;;;17.21;55.01;100501.88;5040657;27;98702;-83
2022/11/09 08:01:20;;;;;;;1.50;0.97;;;;;;;17.22;54.96;100527.66;5053262;27;97342;-82
2022/11/09 08:03:46;;;;;;;0.57;0.50;;;;;;;17.24;55.06;100508.41;5040568;27;97059;-83
2022/11/09 08:06:11;;;;;;;0.93;0.83;;;;;;;17.28;55.01;100530.34;5052679;27;97253;-82
2022/11/09 08:08:36;;;;;;;1.93;0.60;;;;;;;17.30;55.09;100516.63;5048903;27;96804;-82
2022/11/09 08:11:02;;;;;;;1.00;0.70;;;;;;;17.29;55.30;100549.25;5051319;27;104029;-82
2022/11/09 08:13:27;;;;;;;1.00;0.90;;;;;;;17.34;55.24;100525.38;5046707;27;96745;-81
2022/11/09 08:15:53;;;;;;;0.70;0.70;;;;;;;17.38;55.25;100528.56;5046550;27;97329;-82
2022/11/09 08:18:20;;;;;;;1.33;0.80;;;;;;;17.37;55.32;100525.03;5068317;27;97068;-83
2022/11/09 08:20:46;;;;;;;2.37;0.57;;;;;;;17.39;55.19;100524.47;5068960;27;97226;-82
2022/11/09 08:23:16;;;;;;;0.80;0.67;;;;;;;17.44;55.34;100520.81;5057644;27;97083;-82
2022/11/09 08:25:42;;;;;;;1.10;1.00;;;;;;;17.48;55.31;100535.88;5052232;27;97171;-82
2022/11/09 08:28:08;;;;;;;1.30;1.03;;;;;;;17.49;55.28;100529.03;5052303;27;97382;-82
2022/11/09 08:30:34;;;;;;;1.20;1.10;;;;;;;17.54;55.22;100524.66;5065474;27;97552;-82
2022/11/09 08:33:02;;;;;;;1.00;0.90;;;;;;;17.56;55.21;100533.94;5040629;27;96775;-80
2022/11/09 08:35:28;;;;;;;1.07;0.80;;;;;;;17.61;55.29;100530.28;5064245;27;96971;-82
2022/11/09 08:37:54;;;;;;;1.23;0.70;;;;;;;17.64;55.39;100547.91;5053148;27;98050;-82
2022/11/09 08:40:22;;;;;;;1.37;0.87;;;;;;;17.68;55.31;100524.03;5052133;27;96924;-82
2022/11/09 08:42:48;;;;;;;0.83;0.77;;;;;;;17.70;55.29;100529.78;5041760;27;97091;-83
2022/11/09 08:45:14;;;;;;;2.03;0.90;;;;;;;17.72;55.21;100541.13;5042112;27;97115;-82
2022/11/09 08:47:40;;;;;;;4.00;1.00;;;;;;;17.71;55.36;100541.69;5063991;27;97539;-82
2022/11/09 08:50:08;;;;;;;0.90;0.80;;;;;;;17.72;55.36;100541.13;5045393;27;100178;-82
2022/11/09 08:52:33;;;;;;;1.00;0.93;;;;;;;17.72;55.27;100549.47;5067834;27;96613;-81
2022/11/09 08:55:00;;;;;;;0.97;0.60;;;;;;;17.74;55.49;100551.69;5043019;27;97476;-83
2022/11/09 08:57:27;;;;;;;1.10;1.00;;;;;;;17.75;55.40;100545.63;5054732;27;97416;-83
2022/11/09 08:59:52;;;;;;;1.00;0.90;;;;;;;17.79;55.24;100542.47;5049661;27;98093;-81
2022/11/09 09:02:17;;;;;;;1.33;0.80;;;;;;;17.81;55.31;100540.63;5050661;27;97054;-81
2022/11/09 09:04:43;;;;;;;1.00;0.80;;;;;;;17.81;55.23;100537.84;5036810;27;96800;-82
2022/11/09 09:07:09;;;;;;;0.60;0.60;;;;;;;17.80;55.24;100536.34;5043336;27;97231;-81
2022/11/09 09:09:36;;;;;;;0.70;0.60;;;;;;;17.83;55.34;100542.88;5030509;27;101249;-82
2022/11/09 09:12:03;;;;;;;0.80;0.70;;;;;;;17.86;55.27;100545.31;5043110;27;96973;-83
2022/11/09 09:14:28;;;;;;;1.87;0.70;;;;;;;17.93;55.23;100546.69;5046722;27;96856;-81
2022/11/09 09:16:54;;;;;;;0.80;0.80;;;;;;;17.96;55.25;100551.13;5061305;27;97566;-82
2022/11/09 09:19:20;;;;;;;2.50;1.03;;;;;;;17.98;55.33;100557.66;5041233;27;97884;-82
2022/11/09 09:21:45;;;;;;;0.73;0.70;;;;;;;17.95;55.26;100561.50;5048892;27;96935;-82
2022/11/09 09:24:11;;;;;;;0.93;0.70;;;;;;;17.93;55.59;100561.31;5042050;27;97311;-82
2022/11/09 09:26:36;;;;;;;0.90;0.80;;;;;;;17.95;55.35;100578.22;5066306;27;97238;-81
2022/11/09 09:29:02;;;;;;;0.87;0.87;;;;;;;17.97;55.27;100566.56;5042754;27;97078;-82
2022/11/09 09:31:27;;;;;;;1.07;1.00;;;;;;;18.04;55.28;100565.13;5041602;27;97390;-81
2022/11/09 09:33:53;;;;;;;1.10;0.73;;;;;;;18.03;55.33;100581.06;5042565;27;97010;-82
2022/11/09 09:36:21;;;;;;;2.20;1.00;;;;;;;18.08;55.28;100571.09;5038153;27;97411;-82
2022/11/09 09:38:51;;;;;;;1.93;1.03;;;;;;;18.19;55.39;100574.31;5051110;27;97672;-82
2022/11/09 09:41:38;;;;;;;1.13;1.03;;;;;;;18.23;55.12;100566.38;5031729;27;97168;-82
2022/11/09 09:44:29;;;;;;;1.17;0.97;;;;;;;18.27;55.45;100566.00;5044760;27;97163;-82
2022/11/09 09:47:09;;;;;;;1.20;0.70;;;;;;;18.30;55.03;100573.28;5055854;27;96925;-82
2022/11/09 09:49:41;;;;;;;1.57;0.80;;;;;;;18.37;55.10;100576.09;5036322;27;101268;-83
2022/11/09 09:52:41;;;;;;;3.90;0.90;;;;;;;18.39;54.89;100572.78;5032783;27;97389;-82
2022/11/09 09:55:17;;;;;;;2.10;0.60;;;;;;;18.36;54.80;100568.28;5028283;27;97506;-81
2022/11/09 09:57:49;;;;;;;1.00;0.70;;;;;;;18.39;54.73;100576.28;5043332;27;100960;-84
2022/11/09 10:00:23;;;;;;;2.00;0.80;;;;;;;18.40;54.81;100588.19;5047741;27;97207;-81
2022/11/09 10:02:50;;;;;;;1.23;0.67;;;;;;;18.44;54.76;100577.44;5046296;27;97115;-82
2022/11/09 10:05:18;;;;;;;1.03;0.87;;;;;;;18.44;54.75;100574.63;5049394;27;96840;-82
2022/11/09 10:08:20;;;;;;;3.10;0.90;;;;;;;18.45;54.78;100581.75;5065552;27;98194;-83
2022/11/09 10:11:01;;;;;;;0.70;0.63;;;;;;;18.51;54.64;100585.13;5034651;27;102675;-82
2022/11/09 10:13:46;;;;;;;1.70;0.70;;;;;;;18.56;54.80;100581.44;5030881;27;96840;-82
2022/11/09 10:16:22;;;;;;;1.00;0.80;;;;;;;18.58;54.86;100579.59;5022152;27;97626;-81
2022/11/09 10:19:12;;;;;;;1.10;0.70;;;;;;;18.70;54.66;100572.41;5025905;27;99901;-82
2022/11/09 10:21:47;;;;;;;0.70;0.60;;;;;;;18.83;54.68;100577.09;5023201;27;104135;-82
2022/11/09 10:24:18;;;;;;;0.70;0.70;;;;;;;18.93;54.40;100571.75;5020155;27;97120;-83
2022/11/09 10:26:50;;;;;;;1.40;0.73;;;;;;;18.90;54.33;100576.38;5062549;27;97067;-82
2022/11/09 10:29:41;;;;;;;1.37;0.77;;;;;;;18.90;54.37;100576.38;5064046;27;98026;-83
2022/11/09 10:32:22;;;;;;;1.87;0.93;;;;;;;18.90;54.48;100575.63;5037728;27;100669;-81
2022/11/09 10:35:00;;;;;;;1.10;0.60;;;;;;;18.88;54.32;100567.06;5045829;27;96900;-84
2022/11/09 10:37:53;;;;;;;1.20;0.57;;;;;;;18.82;54.14;100563.72;5024185;27;98607;-82
2022/11/09 10:40:39;;;;;;;3.07;0.93;;;;;;;18.83;54.24;100571.50;5016414;27;102527;-82
2022/11/09 10:43:09;;;;;;;1.30;0.73;;;;;;;18.86;54.39;100570.41;5029291;27;99337;-82
2022/11/09 10:45:40;;;;;;;1.10;0.70;;;;;;;18.81;54.17;100585.25;5048369;27;96771;-81
2022/11/09 10:48:08;;;;;;;1.63;0.70;;;;;;;18.80;54.31;100575.41;5040016;27;97558;-82
2022/11/09 10:50:40;;;;;;;0.87;0.70;;;;;;;18.79;54.25;100570.38;5044180;27;98208;-83
2022/11/09 10:53:18;;;;;;;2.03;0.90;;;;;;;18.78;54.52;100564.06;5037139;27;99395;-82
2022/11/09 10:55:53;;;;;;;2.20;0.73;;;;;;;18.77;54.48;100564.59;5060577;27;97238;-82
2022/11/09 10:58:24;;;;;;;2.00;0.97;;;;;;;18.78;54.58;100560.53;5071831;27;97318;-82
2022/11/09 11:01:11;;;;;;;2.97;0.90;;;;;;;18.83;54.73;100560.34;5050638;27;98513;-83
2022/11/09 11:03:38;;;;;;;1.67;0.70;;;;;;;18.91;54.34;100557.59;5033807;27;103963;-83
2022/11/09 11:06:16;;;;;;;0.80;0.70;;;;;;;19.02;54.45;100568.44;5040907;27;97193;-82
2022/11/09 11:08:44;;;;;;;1.83;1.10;;;;;;;19.10;54.06;100569.19;5061090;27;97202;-82
2022/11/09 11:11:21;;;;;;;1.17;0.57;;;;;;;19.11;53.61;100551.91;5042346;27;100579;-83
2022/11/09 11:13:49;;;;;;;1.67;0.83;;;;;;;19.20;54.11;100554.16;5037973;27;100488;-82
2022/11/09 11:16:25;;;;;;;2.30;0.60;;;;;;;19.49;53.65;100554.03;5040650;27;98045;-83
2022/11/09 11:18:50;;;;;;;3.00;0.80;;;;;;;19.74;53.48;100554.97;5018831;27;97196;-85
2022/11/09 11:21:19;;;;;;;2.50;0.70;;;;;;;19.97;52.95;100550.88;5028075;27;97263;-83
2022/11/09 11:24:06;;;;;;;1.30;0.63;;;;;;;19.96;52.11;100554.22;5023997;27;97435;-85
2022/11/09 11:27:18;;;;;;;1.40;0.80;;;;;;;19.79;50.87;100548.47;5030915;27;96703;-86
2022/11/09 11:30:02;;;;;;;2.80;1.10;;;;;;;19.65;51.30;100561.13;4983180;28;97173;-86
2022/11/09 11:32:27;;;;;;;2.47;1.00;;;;;;;19.52;52.19;100550.88;5013350;28;100885;-85